Aktea — SWVE — position and weather

sailwx.info

Track history (hours):
 
Tides and Currents Weather Stations Pressure Air Temp Water Temp Dewpoint Dewpoint Depression Visibility Wind Speed Wind Dir Waves Ship Positions

Aktea

Last reported at 2017-Nov-09 16:54 UTC. Time now 2017-Dec-13 22:21 UTC.
Position N 18°33' W 062°12'.
Warning: this ship's position is 34 days out of date.

Length 248 m; draft 13.9 m.

Type: Tanker. MMSI: 240339000.

Date/timePositionNaut miles runAvg speedWind from/ knotsBaromVisibWave heightAir tempDewpointWater temp
2017-Nov-09 16:54N 18°33' W 062°12'512.7
2017-Nov-09 16:29N 18°36' W 062°17'712.8
2017-Nov-09 15:56N 18°40' W 062°23'2213.0
2017-Nov-09 14:16N 18°52' W 062°43'512.9
2017-Nov-09 13:54N 18°54' W 062°47'  
2017-Nov-02 06:26N 38°00' W 074°29'613.3
2017-Nov-02 06:00N 38°06' W 074°30'813.2
2017-Nov-02 05:22N 38°13' W 074°34'513.3
2017-Nov-02 05:00N 38°18' W 074°37'713.3
2017-Nov-02 04:30N 38°23' W 074°41'713.6
2017-Nov-02 04:00N 38°29' W 074°46'612.9
2017-Nov-02 03:30N 38°34' W 074°50'510.1
2017-Nov-02 03:00N 38°39' W 074°54'5 9.9
2017-Nov-02 02:30N 38°43' W 074°58'5 9.6
2017-Nov-02 02:00N 38°46' W 075°02'5 9.4
2017-Nov-02 01:30N 38°51' W 075°04'612.1
2017-Nov-02 00:59N 38°57' W 075°07'611.8
2017-Nov-02 00:29N 39°02' W 075°09'511.3
2017-Nov-02 00:01N 39°07' W 075°13'510.0
2017-Nov-01 23:31N 39°11' W 075°16'5 9.7
2017-Nov-01 23:00N 39°15' W 075°20'4 8.9
2017-Nov-01 22:30N 39°18' W 075°23'5 9.5
2017-Nov-01 22:00N 39°22' W 075°27'5 9.4
2017-Nov-01 21:31N 39°25' W 075°32'4 8.7
2017-Nov-01 21:01N 39°29' W 075°34'4 8.9
2017-Nov-01 20:30N 39°34' W 075°33'4 8.6
2017-Nov-01 20:00N 39°38' W 075°34'4 9.0
2017-Nov-01 19:30N 39°42' W 075°31'4 8.6
2017-Nov-01 19:00N 39°46' W 075°29'4 7.5
2017-Nov-01 18:30N 39°48' W 075°25'13 0.8
2017-Nov-01 01:58N 39°53' W 075°10'0 0.0
2017-Nov-01 01:28N 39°53' W 075°10'0 0.0
2017-Nov-01 00:58N 39°53' W 075°10'0 0.0
2017-Nov-01 00:28N 39°53' W 075°10'0 0.0
2017-Oct-31 23:58N 39°53' W 075°10'0 0.0
2017-Oct-31 23:28N 39°53' W 075°10'0 0.0
2017-Oct-31 22:58N 39°53' W 075°10'0 0.0
2017-Oct-31 22:28N 39°53' W 075°10'0 0.0
2017-Oct-31 21:58N 39°53' W 075°10'0 0.0
2017-Oct-31 21:28N 39°53' W 075°10'0 0.0
2017-Oct-31 20:58N 39°53' W 075°10'0 0.0
2017-Oct-31 20:28N 39°53' W 075°10'0 0.0
2017-Oct-31 19:58N 39°53' W 075°10'0 0.0
2017-Oct-31 19:28N 39°53' W 075°10'0 0.0
2017-Oct-31 18:58N 39°53' W 075°10'0 0.0
2017-Oct-31 18:28N 39°53' W 075°10'0 0.0
2017-Oct-31 17:58N 39°53' W 075°10'0 0.0
2017-Oct-31 17:28N 39°53' W 075°10'0 0.0
2017-Oct-31 16:58N 39°53' W 075°10'0 0.0
2017-Oct-31 16:28N 39°53' W 075°10'0 0.0
2017-Oct-31 15:58N 39°53' W 075°10'0 0.0
2017-Oct-31 15:28N 39°53' W 075°10'0 0.0
2017-Oct-31 14:58N 39°53' W 075°10'0 0.0
2017-Oct-31 14:28N 39°53' W 075°10'0 0.0
2017-Oct-31 13:58N 39°53' W 075°10'0 0.0
2017-Oct-31 13:28N 39°53' W 075°10'0 0.0
2017-Oct-31 12:58N 39°53' W 075°10'0 0.0
2017-Oct-31 12:28N 39°53' W 075°10'0 0.0
2017-Oct-31 11:58N 39°53' W 075°10'0 0.0
2017-Oct-31 11:28N 39°53' W 075°10'0 0.0
2017-Oct-31 10:58N 39°53' W 075°10'0 0.0
2017-Oct-31 10:28N 39°53' W 075°10'0 0.0
2017-Oct-31 09:58N 39°53' W 075°10'0 0.0
2017-Oct-31 09:22N 39°53' W 075°10'0 0.0
2017-Oct-31 08:58N 39°53' W 075°10'0 0.0
2017-Oct-31 08:28N 39°53' W 075°10'0 0.0
2017-Oct-31 07:58N 39°53' W 075°10'0 0.0
2017-Oct-31 07:28N 39°53' W 075°10'0 0.0
2017-Oct-31 06:58N 39°53' W 075°10'0 0.0
2017-Oct-31 06:28N 39°53' W 075°10'0 0.0
2017-Oct-31 05:58N 39°53' W 075°10'0 0.0
2017-Oct-31 05:28N 39°53' W 075°10'0 0.0
2017-Oct-31 04:58N 39°53' W 075°10'0 0.0
2017-Oct-31 04:28N 39°53' W 075°10'0 0.0
2017-Oct-31 03:58N 39°53' W 075°10'0 0.0
2017-Oct-31 03:28N 39°53' W 075°10'0 0.0
2017-Oct-31 02:58N 39°53' W 075°10'0 0.0
2017-Oct-31 02:28N 39°53' W 075°10'0 0.0
2017-Oct-31 01:58N 39°53' W 075°10'0 0.0
2017-Oct-31 01:28N 39°53' W 075°10'0 0.0
2017-Oct-31 00:58N 39°53' W 075°10'0 0.0
2017-Oct-31 00:28N 39°53' W 075°10'0 0.0
2017-Oct-30 23:58N 39°53' W 075°10'0 0.0
2017-Oct-30 23:28N 39°53' W 075°10'0 0.0
2017-Oct-30 22:58N 39°53' W 075°10'0 0.0
2017-Oct-30 22:28N 39°53' W 075°10'0 0.0
2017-Oct-30 21:58N 39°53' W 075°10'0 0.0
2017-Oct-30 21:28N 39°53' W 075°10'0 0.0
2017-Oct-30 20:58N 39°53' W 075°10'0 0.0
2017-Oct-30 20:28N 39°53' W 075°10'0 0.0
2017-Oct-30 19:58N 39°53' W 075°10'0 0.0
2017-Oct-30 19:28N 39°53' W 075°10'0 0.0
2017-Oct-30 18:58N 39°53' W 075°10'0 0.0
2017-Oct-30 18:28N 39°53' W 075°10'0 0.0
2017-Oct-30 17:58N 39°53' W 075°10'0 0.0
2017-Oct-30 17:25N 39°53' W 075°10'0 0.0
2017-Oct-30 16:58N 39°53' W 075°10'  
Track history (hours):
 
Tides and Currents Weather Stations Pressure Air Temp Water Temp Dewpoint Dewpoint Depression Visibility Wind Speed Wind Dir Waves Ship Positions

Aktea

Last reported at 2017-Nov-09 16:54 UTC. Time now 2017-Dec-13 22:21 UTC.
Position N 18°33' W 062°12'.
Warning: this ship's position is 34 days out of date.

Length 248 m; draft 13.9 m.

Type: Tanker. MMSI: 240339000.

Date/timePositionNaut miles runAvg speedWind from/ knotsBaromVisibWave heightAir tempDewpointWater temp
2017-Nov-09 16:54N 18°33' W 062°12'512.7
2017-Nov-09 16:29N 18°36' W 062°17'712.8
2017-Nov-09 15:56N 18°40' W 062°23'2213.0
2017-Nov-09 14:16N 18°52' W 062°43'512.9
2017-Nov-09 13:54N 18°54' W 062°47'  
2017-Nov-02 06:26N 38°00' W 074°29'613.3
2017-Nov-02 06:00N 38°06' W 074°30'813.2
2017-Nov-02 05:22N 38°13' W 074°34'513.3
2017-Nov-02 05:00N 38°18' W 074°37'713.3
2017-Nov-02 04:30N 38°23' W 074°41'713.6
2017-Nov-02 04:00N 38°29' W 074°46'612.9
2017-Nov-02 03:30N 38°34' W 074°50'510.1
2017-Nov-02 03:00N 38°39' W 074°54'5 9.9
2017-Nov-02 02:30N 38°43' W 074°58'5 9.6
2017-Nov-02 02:00N 38°46' W 075°02'5 9.4
2017-Nov-02 01:30N 38°51' W 075°04'612.1
2017-Nov-02 00:59N 38°57' W 075°07'611.8
2017-Nov-02 00:29N 39°02' W 075°09'511.3
2017-Nov-02 00:01N 39°07' W 075°13'510.0
2017-Nov-01 23:31N 39°11' W 075°16'5 9.7
2017-Nov-01 23:00N 39°15' W 075°20'4 8.9
2017-Nov-01 22:30N 39°18' W 075°23'5 9.5
2017-Nov-01 22:00N 39°22' W 075°27'5 9.4
2017-Nov-01 21:31N 39°25' W 075°32'4 8.7
2017-Nov-01 21:01N 39°29' W 075°34'4 8.9
2017-Nov-01 20:30N 39°34' W 075°33'4 8.6
2017-Nov-01 20:00N 39°38' W 075°34'4 9.0
2017-Nov-01 19:30N 39°42' W 075°31'4 8.6
2017-Nov-01 19:00N 39°46' W 075°29'4 7.5
2017-Nov-01 18:30N 39°48' W 075°25'13 0.8
2017-Nov-01 01:58N 39°53' W 075°10'0 0.0
2017-Nov-01 01:28N 39°53' W 075°10'0 0.0
2017-Nov-01 00:58N 39°53' W 075°10'0 0.0
2017-Nov-01 00:28N 39°53' W 075°10'0 0.0
2017-Oct-31 23:58N 39°53' W 075°10'0 0.0
2017-Oct-31 23:28N 39°53' W 075°10'0 0.0
2017-Oct-31 22:58N 39°53' W 075°10'0 0.0
2017-Oct-31 22:28N 39°53' W 075°10'0 0.0
2017-Oct-31 21:58N 39°53' W 075°10'0 0.0
2017-Oct-31 21:28N 39°53' W 075°10'0 0.0
2017-Oct-31 20:58N 39°53' W 075°10'0 0.0
2017-Oct-31 20:28N 39°53' W 075°10'0 0.0
2017-Oct-31 19:58N 39°53' W 075°10'0 0.0
2017-Oct-31 19:28N 39°53' W 075°10'0 0.0
2017-Oct-31 18:58N 39°53' W 075°10'0 0.0
2017-Oct-31 18:28N 39°53' W 075°10'0 0.0
2017-Oct-31 17:58N 39°53' W 075°10'0 0.0
2017-Oct-31 17:28N 39°53' W 075°10'0 0.0
2017-Oct-31 16:58N 39°53' W 075°10'0 0.0
2017-Oct-31 16:28N 39°53' W 075°10'0 0.0
2017-Oct-31 15:58N 39°53' W 075°10'0 0.0
2017-Oct-31 15:28N 39°53' W 075°10'0 0.0
2017-Oct-31 14:58N 39°53' W 075°10'0 0.0
2017-Oct-31 14:28N 39°53' W 075°10'0 0.0
2017-Oct-31 13:58N 39°53' W 075°10'0 0.0
2017-Oct-31 13:28N 39°53' W 075°10'0 0.0
2017-Oct-31 12:58N 39°53' W 075°10'0 0.0
2017-Oct-31 12:28N 39°53' W 075°10'0 0.0
2017-Oct-31 11:58N 39°53' W 075°10'0 0.0
2017-Oct-31 11:28N 39°53' W 075°10'0 0.0
2017-Oct-31 10:58N 39°53' W 075°10'0 0.0
2017-Oct-31 10:28N 39°53' W 075°10'0 0.0
2017-Oct-31 09:58N 39°53' W 075°10'0 0.0
2017-Oct-31 09:22N 39°53' W 075°10'0 0.0
2017-Oct-31 08:58N 39°53' W 075°10'0 0.0
2017-Oct-31 08:28N 39°53' W 075°10'0 0.0
2017-Oct-31 07:58N 39°53' W 075°10'0 0.0
2017-Oct-31 07:28N 39°53' W 075°10'0 0.0
2017-Oct-31 06:58N 39°53' W 075°10'0 0.0
2017-Oct-31 06:28N 39°53' W 075°10'0 0.0
2017-Oct-31 05:58N 39°53' W 075°10'0 0.0
2017-Oct-31 05:28N 39°53' W 075°10'0 0.0
2017-Oct-31 04:58N 39°53' W 075°10'0 0.0
2017-Oct-31 04:28N 39°53' W 075°10'0 0.0
2017-Oct-31 03:58N 39°53' W 075°10'0 0.0
2017-Oct-31 03:28N 39°53' W 075°10'0 0.0
2017-Oct-31 02:58N 39°53' W 075°10'0 0.0
2017-Oct-31 02:28N 39°53' W 075°10'0 0.0
2017-Oct-31 01:58N 39°53' W 075°10'0 0.0
2017-Oct-31 01:28N 39°53' W 075°10'0 0.0
2017-Oct-31 00:58N 39°53' W 075°10'0 0.0
2017-Oct-31 00:28N 39°53' W 075°10'0 0.0
2017-Oct-30 23:58N 39°53' W 075°10'0 0.0
2017-Oct-30 23:28N 39°53' W 075°10'0 0.0
2017-Oct-30 22:58N 39°53' W 075°10'0 0.0
2017-Oct-30 22:28N 39°53' W 075°10'0 0.0
2017-Oct-30 21:58N 39°53' W 075°10'0 0.0
2017-Oct-30 21:28N 39°53' W 075°10'0 0.0
2017-Oct-30 20:58N 39°53' W 075°10'0 0.0
2017-Oct-30 20:28N 39°53' W 075°10'0 0.0
2017-Oct-30 19:58N 39°53' W 075°10'0 0.0
2017-Oct-30 19:28N 39°53' W 075°10'0 0.0
2017-Oct-30 18:58N 39°53' W 075°10'0 0.0
2017-Oct-30 18:28N 39°53' W 075°10'0 0.0
2017-Oct-30 17:58N 39°53' W 075°10'0 0.0
2017-Oct-30 17:25N 39°53' W 075°10'0 0.0
2017-Oct-30 16:58N 39°53' W 075°10'  

Dump ship's entire track history